sensor_id;sensor_type;location;lat;lon;timestamp;temperature;humidity
12977;DHT22;6553;48.412;9.514;2023-01-16T00:01:25;19.40;57.50
12977;DHT22;6553;48.412;9.514;2023-01-16T00:03:52;19.40;57.50
12977;DHT22;6553;48.412;9.514;2023-01-16T00:06:17;19.40;57.50
12977;DHT22;6553;48.412;9.514;2023-01-16T00:08:43;19.40;57.50
12977;DHT22;6553;48.412;9.514;2023-01-16T00:11:10;19.50;57.50
12977;DHT22;6553;48.412;9.514;2023-01-16T00:13:37;19.40;58.10
12977;DHT22;6553;48.412;9.514;2023-01-16T00:16:04;19.40;57.40
12977;DHT22;6553;48.412;9.514;2023-01-16T00:18:30;19.40;57.50
12977;DHT22;6553;48.412;9.514;2023-01-16T00:20:55;19.40;57.50
12977;DHT22;6553;48.412;9.514;2023-01-16T00:23:21;19.40;57.50
12977;DHT22;6553;48.412;9.514;2023-01-16T00:25:47;19.40;57.50
12977;DHT22;6553;48.412;9.514;2023-01-16T00:28:13;19.40;57.50
12977;DHT22;6553;48.412;9.514;2023-01-16T00:30:40;19.40;57.50
12977;DHT22;6553;48.412;9.514;2023-01-16T00:33:08;19.40;57.40
12977;DHT22;6553;48.412;9.514;2023-01-16T00:35:34;19.40;57.40
12977;DHT22;6553;48.412;9.514;2023-01-16T00:38:00;19.40;57.40
12977;DHT22;6553;48.412;9.514;2023-01-16T00:40:26;19.50;57.50
12977;DHT22;6553;48.412;9.514;2023-01-16T00:42:52;19.40;57.40
12977;DHT22;6553;48.412;9.514;2023-01-16T00:45:18;19.40;57.40
12977;DHT22;6553;48.412;9.514;2023-01-16T00:47:44;19.40;57.40
12977;DHT22;6553;48.412;9.514;2023-01-16T00:50:10;19.40;57.40
12977;DHT22;6553;48.412;9.514;2023-01-16T00:52:36;19.40;57.40
12977;DHT22;6553;48.412;9.514;2023-01-16T00:55:02;19.40;57.40
12977;DHT22;6553;48.412;9.514;2023-01-16T00:57:28;19.40;57.40
12977;DHT22;6553;48.412;9.514;2023-01-16T00:59:54;19.40;57.40
12977;DHT22;6553;48.412;9.514;2023-01-16T01:02:20;19.50;57.60
12977;DHT22;6553;48.412;9.514;2023-01-16T01:04:45;19.40;57.40
12977;DHT22;6553;48.412;9.514;2023-01-16T01:07:11;19.40;57.40
12977;DHT22;6553;48.412;9.514;2023-01-16T01:09:37;19.40;57.40
12977;DHT22;6553;48.412;9.514;2023-01-16T01:12:03;19.40;57.40
12977;DHT22;6553;48.412;9.514;2023-01-16T01:14:29;19.40;57.40
12977;DHT22;6553;48.412;9.514;2023-01-16T01:16:54;19.40;57.30
12977;DHT22;6553;48.412;9.514;2023-01-16T01:19:20;19.40;57.40
12977;DHT22;6553;48.412;9.514;2023-01-16T01:21:46;19.40;57.40
12977;DHT22;6553;48.412;9.514;2023-01-16T01:24:12;19.40;57.40
12977;DHT22;6553;48.412;9.514;2023-01-16T01:26:37;19.40;57.40
12977;DHT22;6553;48.412;9.514;2023-01-16T01:29:03;19.40;57.40
12977;DHT22;6553;48.412;9.514;2023-01-16T01:31:29;19.40;57.40
12977;DHT22;6553;48.412;9.514;2023-01-16T01:33:55;19.40;57.40
12977;DHT22;6553;48.412;9.514;2023-01-16T01:36:21;19.40;57.40
12977;DHT22;6553;48.412;9.514;2023-01-16T01:38:47;19.40;57.30
12977;DHT22;6553;48.412;9.514;2023-01-16T01:41:15;19.40;57.30
12977;DHT22;6553;48.412;9.514;2023-01-16T01:43:53;19.50;57.40
12977;DHT22;6553;48.412;9.514;2023-01-16T01:46:39;19.40;57.30
12977;DHT22;6553;48.412;9.514;2023-01-16T01:49:24;19.40;57.30
12977;DHT22;6553;48.412;9.514;2023-01-16T01:51:57;19.50;57.40
12977;DHT22;6553;48.412;9.514;2023-01-16T01:54:33;19.40;57.30
12977;DHT22;6553;48.412;9.514;2023-01-16T01:57:07;19.40;57.30
12977;DHT22;6553;48.412;9.514;2023-01-16T01:59:43;19.40;57.30
12977;DHT22;6553;48.412;9.514;2023-01-16T02:02:16;19.40;57.30
12977;DHT22;6553;48.412;9.514;2023-01-16T02:04:46;19.40;57.30
12977;DHT22;6553;48.412;9.514;2023-01-16T02:07:16;19.40;57.20
12977;DHT22;6553;48.412;9.514;2023-01-16T02:09:43;19.40;57.30
12977;DHT22;6553;48.412;9.514;2023-01-16T02:12:12;19.40;57.30
12977;DHT22;6553;48.412;9.514;2023-01-16T02:14:42;19.40;57.30
12977;DHT22;6553;48.412;9.514;2023-01-16T02:17:16;19.40;57.20
12977;DHT22;6553;48.412;9.514;2023-01-16T02:20:23;19.40;57.20
12977;DHT22;6553;48.412;9.514;2023-01-16T02:43:52;19.40;57.10
12977;DHT22;6553;48.412;9.514;2023-01-16T02:46:19;19.40;57.10
12977;DHT22;6553;48.412;9.514;2023-01-16T02:49:07;19.40;57.10
12977;DHT22;6553;48.412;9.514;2023-01-16T02:52:04;19.40;57.10
12977;DHT22;6553;48.412;9.514;2023-01-16T02:54:45;19.40;57.20
12977;DHT22;6553;48.412;9.514;2023-01-16T02:57:20;19.40;57.10
12977;DHT22;6553;48.412;9.514;2023-01-16T02:59:50;19.40;57.10
12977;DHT22;6553;48.412;9.514;2023-01-16T03:02:16;19.40;57.00
12977;DHT22;6553;48.412;9.514;2023-01-16T03:04:46;19.40;57.10
12977;DHT22;6553;48.412;9.514;2023-01-16T03:13:11;19.40;57.10
12977;DHT22;6553;48.412;9.514;2023-01-16T03:16:03;19.40;57.00
12977;DHT22;6553;48.412;9.514;2023-01-16T03:27:54;19.40;57.00
12977;DHT22;6553;48.412;9.514;2023-01-16T03:30:52;19.50;57.10
12977;DHT22;6553;48.412;9.514;2023-01-16T03:33:42;19.50;57.10
12977;DHT22;6553;48.412;9.514;2023-01-16T03:36:38;19.40;57.00
12977;DHT22;6553;48.412;9.514;2023-01-16T03:39:12;19.40;57.00
12977;DHT22;6553;48.412;9.514;2023-01-16T03:41:40;19.40;57.10
12977;DHT22;6553;48.412;9.514;2023-01-16T03:44:13;19.50;57.10
12977;DHT22;6553;48.412;9.514;2023-01-16T03:46:48;19.50;57.10
12977;DHT22;6553;48.412;9.514;2023-01-16T03:49:20;19.40;57.00
12977;DHT22;6553;48.412;9.514;2023-01-16T03:51:56;19.40;57.10
12977;DHT22;6553;48.412;9.514;2023-01-16T03:54:41;19.40;57.00
12977;DHT22;6553;48.412;9.514;2023-01-16T03:57:41;19.40;57.00
12977;DHT22;6553;48.412;9.514;2023-01-16T04:00:36;19.40;57.00
12977;DHT22;6553;48.412;9.514;2023-01-16T04:03:21;19.40;57.10
12977;DHT22;6553;48.412;9.514;2023-01-16T04:08:45;19.40;57.00
12977;DHT22;6553;48.412;9.514;2023-01-16T04:11:13;19.50;57.70
12977;DHT22;6553;48.412;9.514;2023-01-16T04:13:46;19.50;57.10
12977;DHT22;6553;48.412;9.514;2023-01-16T04:16:16;19.50;57.00
12977;DHT22;6553;48.412;9.514;2023-01-16T04:18:46;19.50;57.10
12977;DHT22;6553;48.412;9.514;2023-01-16T04:21:14;19.50;57.00
12977;DHT22;6553;48.412;9.514;2023-01-16T04:23:40;19.50;57.10
12977;DHT22;6553;48.412;9.514;2023-01-16T04:26:06;19.50;57.00
12977;DHT22;6553;48.412;9.514;2023-01-16T04:28:32;19.50;57.00
12977;DHT22;6553;48.412;9.514;2023-01-16T04:30:58;19.50;57.10
12977;DHT22;6553;48.412;9.514;2023-01-16T04:33:23;19.50;57.00
12977;DHT22;6553;48.412;9.514;2023-01-16T04:35:49;19.50;57.10
12977;DHT22;6553;48.412;9.514;2023-01-16T04:38:15;19.50;57.00
12977;DHT22;6553;48.412;9.514;2023-01-16T04:40:41;19.50;57.00
12977;DHT22;6553;48.412;9.514;2023-01-16T04:43:06;19.50;57.10
12977;DHT22;6553;48.412;9.514;2023-01-16T04:45:32;19.50;57.00
12977;DHT22;6553;48.412;9.514;2023-01-16T04:48:33;19.50;57.00
12977;DHT22;6553;48.412;9.514;2023-01-16T04:50:59;19.50;57.00
12977;DHT22;6553;48.412;9.514;2023-01-16T04:53:25;19.50;57.00
12977;DHT22;6553;48.412;9.514;2023-01-16T04:55:50;19.50;57.00
12977;DHT22;6553;48.412;9.514;2023-01-16T04:58:16;19.40;56.90
12977;DHT22;6553;48.412;9.514;2023-01-16T05:00:42;19.40;56.90
12977;DHT22;6553;48.412;9.514;2023-01-16T05:03:08;19.50;57.00
12977;DHT22;6553;48.412;9.514;2023-01-16T05:05:33;19.50;57.00
12977;DHT22;6553;48.412;9.514;2023-01-16T05:07:59;19.50;56.90
12977;DHT22;6553;48.412;9.514;2023-01-16T05:10:43;19.50;57.00
12977;DHT22;6553;48.412;9.514;2023-01-16T05:13:09;19.50;57.00
12977;DHT22;6553;48.412;9.514;2023-01-16T05:15:35;19.50;56.90
12977;DHT22;6553;48.412;9.514;2023-01-16T05:18:01;19.50;57.00
12977;DHT22;6553;48.412;9.514;2023-01-16T05:20:26;19.50;56.90
12977;DHT22;6553;48.412;9.514;2023-01-16T05:22:52;19.50;57.00
12977;DHT22;6553;48.412;9.514;2023-01-16T05:25:18;19.50;56.90
12977;DHT22;6553;48.412;9.514;2023-01-16T05:27:49;19.50;56.90
12977;DHT22;6553;48.412;9.514;2023-01-16T05:30:15;19.50;56.90
12977;DHT22;6553;48.412;9.514;2023-01-16T05:32:43;19.50;56.90
12977;DHT22;6553;48.412;9.514;2023-01-16T05:35:09;19.50;56.80
12977;DHT22;6553;48.412;9.514;2023-01-16T05:37:35;19.50;57.00
12977;DHT22;6553;48.412;9.514;2023-01-16T05:40:02;19.50;56.90
12977;DHT22;6553;48.412;9.514;2023-01-16T05:42:28;19.50;56.90
12977;DHT22;6553;48.412;9.514;2023-01-16T05:44:53;19.50;56.90
12977;DHT22;6553;48.412;9.514;2023-01-16T05:47:20;19.50;56.80
12977;DHT22;6553;48.412;9.514;2023-01-16T05:49:46;19.50;56.90
12977;DHT22;6553;48.412;9.514;2023-01-16T05:52:12;19.50;56.80
12977;DHT22;6553;48.412;9.514;2023-01-16T05:54:38;19.50;56.80
12977;DHT22;6553;48.412;9.514;2023-01-16T05:57:04;19.50;56.80
12977;DHT22;6553;48.412;9.514;2023-01-16T05:59:30;19.50;56.80
12977;DHT22;6553;48.412;9.514;2023-01-16T06:01:56;19.50;56.80
12977;DHT22;6553;48.412;9.514;2023-01-16T06:04:23;19.50;56.80
12977;DHT22;6553;48.412;9.514;2023-01-16T06:06:49;19.50;56.80
12977;DHT22;6553;48.412;9.514;2023-01-16T06:09:15;19.50;56.80
12977;DHT22;6553;48.412;9.514;2023-01-16T06:11:41;19.50;56.90
12977;DHT22;6553;48.412;9.514;2023-01-16T06:14:07;19.50;56.80
12977;DHT22;6553;48.412;9.514;2023-01-16T06:16:34;19.50;56.80
12977;DHT22;6553;48.412;9.514;2023-01-16T06:19:00;19.50;56.80
12977;DHT22;6553;48.412;9.514;2023-01-16T06:21:27;19.50;56.70
12977;DHT22;6553;48.412;9.514;2023-01-16T06:23:53;19.50;56.70
12977;DHT22;6553;48.412;9.514;2023-01-16T06:26:19;19.50;56.80
12977;DHT22;6553;48.412;9.514;2023-01-16T06:28:45;19.50;56.70
12977;DHT22;6553;48.412;9.514;2023-01-16T06:31:11;19.50;56.80
12977;DHT22;6553;48.412;9.514;2023-01-16T06:33:37;19.50;56.70
12977;DHT22;6553;48.412;9.514;2023-01-16T06:36:03;19.40;56.80
12977;DHT22;6553;48.412;9.514;2023-01-16T06:38:29;19.50;56.70
12977;DHT22;6553;48.412;9.514;2023-01-16T06:40:55;19.50;56.70
12977;DHT22;6553;48.412;9.514;2023-01-16T06:43:26;19.50;56.70
12977;DHT22;6553;48.412;9.514;2023-01-16T06:45:53;19.50;56.70
12977;DHT22;6553;48.412;9.514;2023-01-16T06:48:19;19.50;56.70
12977;DHT22;6553;48.412;9.514;2023-01-16T06:50:45;19.50;56.70
12977;DHT22;6553;48.412;9.514;2023-01-16T06:53:12;19.50;56.70
12977;DHT22;6553;48.412;9.514;2023-01-16T06:55:39;19.50;56.70
12977;DHT22;6553;48.412;9.514;2023-01-16T06:58:06;19.50;56.70
12977;DHT22;6553;48.412;9.514;2023-01-16T07:00:33;19.50;56.70
12977;DHT22;6553;48.412;9.514;2023-01-16T07:03:00;19.50;56.70
12977;DHT22;6553;48.412;9.514;2023-01-16T07:05:28;19.50;56.70
12977;DHT22;6553;48.412;9.514;2023-01-16T07:07:55;19.50;56.70
12977;DHT22;6553;48.412;9.514;2023-01-16T07:10:21;19.50;56.70
12977;DHT22;6553;48.412;9.514;2023-01-16T07:12:49;19.50;56.60
12977;DHT22;6553;48.412;9.514;2023-01-16T07:15:16;19.50;56.70
12977;DHT22;6553;48.412;9.514;2023-01-16T07:18:01;19.40;56.50
12977;DHT22;6553;48.412;9.514;2023-01-16T07:20:55;19.40;56.50
12977;DHT22;6553;48.412;9.514;2023-01-16T07:23:44;19.50;56.60
12977;DHT22;6553;48.412;9.514;2023-01-16T07:26:14;19.50;57.10
12977;DHT22;6553;48.412;9.514;2023-01-16T07:28:44;19.40;56.50
12977;DHT22;6553;48.412;9.514;2023-01-16T07:31:12;19.50;56.60
12977;DHT22;6553;48.412;9.514;2023-01-16T07:33:38;19.50;56.50
12977;DHT22;6553;48.412;9.514;2023-01-16T07:36:04;19.50;56.60
12977;DHT22;6553;48.412;9.514;2023-01-16T07:38:30;19.50;56.50
12977;DHT22;6553;48.412;9.514;2023-01-16T07:40:56;19.40;56.40
12977;DHT22;6553;48.412;9.514;2023-01-16T07:43:22;19.50;56.50
12977;DHT22;6553;48.412;9.514;2023-01-16T07:45:47;19.40;56.50
12977;DHT22;6553;48.412;9.514;2023-01-16T07:48:26;19.50;56.50
12977;DHT22;6553;48.412;9.514;2023-01-16T07:50:53;19.50;56.50
12977;DHT22;6553;48.412;9.514;2023-01-16T07:53:22;19.50;56.50
12977;DHT22;6553;48.412;9.514;2023-01-16T07:55:50;19.50;56.50
12977;DHT22;6553;48.412;9.514;2023-01-16T07:58:18;19.50;56.50
12977;DHT22;6553;48.412;9.514;2023-01-16T08:00:45;19.50;56.50
12977;DHT22;6553;48.412;9.514;2023-01-16T08:03:11;19.50;56.50
12977;DHT22;6553;48.412;9.514;2023-01-16T08:05:38;19.50;56.40
12977;DHT22;6553;48.412;9.514;2023-01-16T08:08:04;19.50;56.40
12977;DHT22;6553;48.412;9.514;2023-01-16T08:10:30;19.50;56.40
12977;DHT22;6553;48.412;9.514;2023-01-16T08:12:56;19.50;56.50
12977;DHT22;6553;48.412;9.514;2023-01-16T08:15:22;19.50;56.40
12977;DHT22;6553;48.412;9.514;2023-01-16T08:17:47;19.50;56.40
12977;DHT22;6553;48.412;9.514;2023-01-16T08:20:13;19.50;56.40
12977;DHT22;6553;48.412;9.514;2023-01-16T08:22:46;19.50;56.40
12977;DHT22;6553;48.412;9.514;2023-01-16T08:25:16;19.50;56.30
12977;DHT22;6553;48.412;9.514;2023-01-16T08:27:44;19.50;56.30
12977;DHT22;6553;48.412;9.514;2023-01-16T08:30:10;19.50;56.30
12977;DHT22;6553;48.412;9.514;2023-01-16T08:32:37;19.50;56.30
12977;DHT22;6553;48.412;9.514;2023-01-16T08:35:03;19.50;56.30
12977;DHT22;6553;48.412;9.514;2023-01-16T08:37:30;19.50;56.30
12977;DHT22;6553;48.412;9.514;2023-01-16T08:39:56;19.50;56.30
12977;DHT22;6553;48.412;9.514;2023-01-16T08:42:22;19.50;56.20
12977;DHT22;6553;48.412;9.514;2023-01-16T08:45:11;19.50;56.30
12977;DHT22;6553;48.412;9.514;2023-01-16T08:47:57;19.50;56.20
12977;DHT22;6553;48.412;9.514;2023-01-16T08:50:44;19.50;56.20
12977;DHT22;6553;48.412;9.514;2023-01-16T08:53:29;19.50;56.30
12977;DHT22;6553;48.412;9.514;2023-01-16T08:55:55;19.50;56.20
12977;DHT22;6553;48.412;9.514;2023-01-16T08:58:21;19.50;56.80
12977;DHT22;6553;48.412;9.514;2023-01-16T09:00:48;19.50;56.20
12977;DHT22;6553;48.412;9.514;2023-01-16T09:03:14;19.50;56.10
12977;DHT22;6553;48.412;9.514;2023-01-16T09:05:44;19.50;56.10
12977;DHT22;6553;48.412;9.514;2023-01-16T09:08:10;19.50;56.20
12977;DHT22;6553;48.412;9.514;2023-01-16T09:10:35;19.50;56.20
12977;DHT22;6553;48.412;9.514;2023-01-16T09:13:02;19.50;56.20
12977;DHT22;6553;48.412;9.514;2023-01-16T09:15:47;19.50;56.20
12977;DHT22;6553;48.412;9.514;2023-01-16T09:18:13;19.50;56.10
12977;DHT22;6553;48.412;9.514;2023-01-16T09:20:39;19.50;56.20
12977;DHT22;6553;48.412;9.514;2023-01-16T09:23:05;19.50;56.20
12977;DHT22;6553;48.412;9.514;2023-01-16T09:25:32;19.50;56.20
12977;DHT22;6553;48.412;9.514;2023-01-16T09:27:59;19.50;56.20
12977;DHT22;6553;48.412;9.514;2023-01-16T09:30:26;19.50;56.10
12977;DHT22;6553;48.412;9.514;2023-01-16T09:32:52;19.60;56.20
12977;DHT22;6553;48.412;9.514;2023-01-16T09:35:19;19.50;56.20
12977;DHT22;6553;48.412;9.514;2023-01-16T09:37:45;19.50;56.10
12977;DHT22;6553;48.412;9.514;2023-01-16T09:40:21;19.50;56.10
12977;DHT22;6553;48.412;9.514;2023-01-16T09:43:02;19.50;56.10
12977;DHT22;6553;48.412;9.514;2023-01-16T09:45:50;19.60;56.10
12977;DHT22;6553;48.412;9.514;2023-01-16T09:48:27;19.60;56.10
12977;DHT22;6553;48.412;9.514;2023-01-16T09:51:04;19.50;56.00
12977;DHT22;6553;48.412;9.514;2023-01-16T09:53:51;19.50;56.00
12977;DHT22;6553;48.412;9.514;2023-01-16T09:56:41;19.60;56.10
12977;DHT22;6553;48.412;9.514;2023-01-16T09:59:52;19.60;56.00
12977;DHT22;6553;48.412;9.514;2023-01-16T10:02:25;19.60;56.00
12977;DHT22;6553;48.412;9.514;2023-01-16T10:04:57;19.60;55.90
12977;DHT22;6553;48.412;9.514;2023-01-16T10:10:36;19.60;55.90
12977;DHT22;6553;48.412;9.514;2023-01-16T10:22:20;19.60;55.90
12977;DHT22;6553;48.412;9.514;2023-01-16T10:31:11;19.60;55.80
12977;DHT22;6553;48.412;9.514;2023-01-16T10:34:05;19.60;55.80
12977;DHT22;6553;48.412;9.514;2023-01-16T10:36:43;19.60;55.90
12977;DHT22;6553;48.412;9.514;2023-01-16T10:39:13;19.60;55.90
12977;DHT22;6553;48.412;9.514;2023-01-16T10:41:50;19.60;55.80
12977;DHT22;6553;48.412;9.514;2023-01-16T10:44:53;19.60;55.90
12977;DHT22;6553;48.412;9.514;2023-01-16T10:47:47;19.60;55.80
12977;DHT22;6553;48.412;9.514;2023-01-16T10:50:32;19.60;55.80
12977;DHT22;6553;48.412;9.514;2023-01-16T10:53:00;19.60;55.90
12977;DHT22;6553;48.412;9.514;2023-01-16T10:55:26;19.60;55.80
12977;DHT22;6553;48.412;9.514;2023-01-16T10:57:57;19.60;55.90
12977;DHT22;6553;48.412;9.514;2023-01-16T11:00:32;19.60;55.90
12977;DHT22;6553;48.412;9.514;2023-01-16T11:05:44;19.60;55.90
12977;DHT22;6553;48.412;9.514;2023-01-16T11:10:45;19.60;55.90
12977;DHT22;6553;48.412;9.514;2023-01-16T11:13:19;19.60;55.90
12977;DHT22;6553;48.412;9.514;2023-01-16T11:19:18;19.60;55.90
12977;DHT22;6553;48.412;9.514;2023-01-16T11:21:51;19.60;55.90
12977;DHT22;6553;48.412;9.514;2023-01-16T11:24:31;19.60;55.80
12977;DHT22;6553;48.412;9.514;2023-01-16T11:27:00;19.60;55.80
12977;DHT22;6553;48.412;9.514;2023-01-16T11:29:36;19.60;55.80
12977;DHT22;6553;48.412;9.514;2023-01-16T11:32:06;19.60;55.80
12977;DHT22;6553;48.412;9.514;2023-01-16T11:34:37;19.60;56.20
12977;DHT22;6553;48.412;9.514;2023-01-16T11:37:12;19.60;56.00
12977;DHT22;6553;48.412;9.514;2023-01-16T11:39:41;19.60;56.00
12977;DHT22;6553;48.412;9.514;2023-01-16T11:42:12;19.60;56.00
12977;DHT22;6553;48.412;9.514;2023-01-16T11:44:58;19.60;56.00
12977;DHT22;6553;48.412;9.514;2023-01-16T11:47:53;19.60;56.00
12977;DHT22;6553;48.412;9.514;2023-01-16T11:50:33;19.60;56.00
12977;DHT22;6553;48.412;9.514;2023-01-16T11:53:01;19.60;56.00
12977;DHT22;6553;48.412;9.514;2023-01-16T12:04:45;19.70;56.10
12977;DHT22;6553;48.412;9.514;2023-01-16T12:11:05;19.60;56.10
12977;DHT22;6553;48.412;9.514;2023-01-16T12:26:14;19.70;56.20
12977;DHT22;6553;48.412;9.514;2023-01-16T12:29:09;19.70;56.20
12977;DHT22;6553;48.412;9.514;2023-01-16T12:32:19;19.70;56.20
12977;DHT22;6553;48.412;9.514;2023-01-16T12:35:21;19.70;56.20
12977;DHT22;6553;48.412;9.514;2023-01-16T12:38:19;19.70;56.20
12977;DHT22;6553;48.412;9.514;2023-01-16T12:55:05;19.70;56.40
12977;DHT22;6553;48.412;9.514;2023-01-16T13:00:33;19.70;56.20
12977;DHT22;6553;48.412;9.514;2023-01-16T13:06:07;19.70;56.30
12977;DHT22;6553;48.412;9.514;2023-01-16T13:08:47;19.70;56.20
12977;DHT22;6553;48.412;9.514;2023-01-16T13:11:31;19.70;56.30
12977;DHT22;6553;48.412;9.514;2023-01-16T13:14:20;19.70;56.30
12977;DHT22;6553;48.412;9.514;2023-01-16T13:17:02;19.70;56.30
12977;DHT22;6553;48.412;9.514;2023-01-16T13:19:34;19.70;56.30
12977;DHT22;6553;48.412;9.514;2023-01-16T13:22:27;19.70;56.30
12977;DHT22;6553;48.412;9.514;2023-01-16T13:25:07;19.70;56.30
12977;DHT22;6553;48.412;9.514;2023-01-16T13:27:44;19.70;57.00
12977;DHT22;6553;48.412;9.514;2023-01-16T13:30:17;19.70;56.40
12977;DHT22;6553;48.412;9.514;2023-01-16T13:33:01;19.70;56.30
12977;DHT22;6553;48.412;9.514;2023-01-16T13:43:56;19.70;56.40
12977;DHT22;6553;48.412;9.514;2023-01-16T13:46:45;19.80;56.40
12977;DHT22;6553;48.412;9.514;2023-01-16T13:49:22;19.80;56.40
12977;DHT22;6553;48.412;9.514;2023-01-16T13:51:51;19.70;56.30
12977;DHT22;6553;48.412;9.514;2023-01-16T13:54:24;19.70;56.40
12977;DHT22;6553;48.412;9.514;2023-01-16T13:56:59;19.80;56.40
12977;DHT22;6553;48.412;9.514;2023-01-16T13:59:49;19.80;56.50
12977;DHT22;6553;48.412;9.514;2023-01-16T14:13:35;19.80;56.40
12977;DHT22;6553;48.412;9.514;2023-01-16T14:16:31;19.80;56.40
12977;DHT22;6553;48.412;9.514;2023-01-16T14:21:42;19.70;56.40
12977;DHT22;6553;48.412;9.514;2023-01-16T14:24:41;19.70;56.40
12977;DHT22;6553;48.412;9.514;2023-01-16T14:27:17;19.80;56.50
12977;DHT22;6553;48.412;9.514;2023-01-16T14:29:49;19.70;56.40
12977;DHT22;6553;48.412;9.514;2023-01-16T14:32:26;19.80;56.50
12977;DHT22;6553;48.412;9.514;2023-01-16T14:35:15;19.80;56.50
12977;DHT22;6553;48.412;9.514;2023-01-16T14:37:52;19.70;56.40
12977;DHT22;6553;48.412;9.514;2023-01-16T14:40:23;19.80;56.50
12977;DHT22;6553;48.412;9.514;2023-01-16T14:43:14;19.80;56.50
12977;DHT22;6553;48.412;9.514;2023-01-16T14:46:30;19.80;56.50
12977;DHT22;6553;48.412;9.514;2023-01-16T14:55:26;19.80;56.50
12977;DHT22;6553;48.412;9.514;2023-01-16T14:57:56;19.80;56.50
12977;DHT22;6553;48.412;9.514;2023-01-16T15:00:24;19.80;56.50
12977;DHT22;6553;48.412;9.514;2023-01-16T15:02:56;19.80;56.50
12977;DHT22;6553;48.412;9.514;2023-01-16T15:05:45;19.70;56.40
12977;DHT22;6553;48.412;9.514;2023-01-16T15:08:21;19.80;56.50
12977;DHT22;6553;48.412;9.514;2023-01-16T15:10:52;19.70;56.40
12977;DHT22;6553;48.412;9.514;2023-01-16T15:16:18;19.70;56.40
12977;DHT22;6553;48.412;9.514;2023-01-16T15:19:17;19.80;56.50
12977;DHT22;6553;48.412;9.514;2023-01-16T15:22:15;19.80;56.50
12977;DHT22;6553;48.412;9.514;2023-01-16T15:24:49;19.80;56.50
12977;DHT22;6553;48.412;9.514;2023-01-16T15:27:28;19.70;56.40
12977;DHT22;6553;48.412;9.514;2023-01-16T15:30:04;19.70;56.40
12977;DHT22;6553;48.412;9.514;2023-01-16T15:33:00;19.70;56.40
12977;DHT22;6553;48.412;9.514;2023-01-16T15:35:54;19.70;56.40
12977;DHT22;6553;48.412;9.514;2023-01-16T15:38:24;19.70;56.40
12977;DHT22;6553;48.412;9.514;2023-01-16T15:40:51;19.70;56.40
12977;DHT22;6553;48.412;9.514;2023-01-16T15:43:18;19.70;56.40
12977;DHT22;6553;48.412;9.514;2023-01-16T15:46:15;19.70;56.40
12977;DHT22;6553;48.412;9.514;2023-01-16T15:51:52;19.80;56.50
12977;DHT22;6553;48.412;9.514;2023-01-16T15:54:19;19.70;56.40
12977;DHT22;6553;48.412;9.514;2023-01-16T15:56:47;19.80;56.50
12977;DHT22;6553;48.412;9.514;2023-01-16T15:59:26;19.70;56.40
12977;DHT22;6553;48.412;9.514;2023-01-16T16:02:16;19.70;56.40
12977;DHT22;6553;48.412;9.514;2023-01-16T16:04:45;19.80;56.50
12977;DHT22;6553;48.412;9.514;2023-01-16T16:07:13;19.70;56.40
12977;DHT22;6553;48.412;9.514;2023-01-16T16:09:43;19.70;56.40
12977;DHT22;6553;48.412;9.514;2023-01-16T16:12:11;19.70;56.40
12977;DHT22;6553;48.412;9.514;2023-01-16T16:14:38;19.70;56.40
12977;DHT22;6553;48.412;9.514;2023-01-16T16:17:27;19.70;56.40
12977;DHT22;6553;48.412;9.514;2023-01-16T16:20:34;19.70;56.40
12977;DHT22;6553;48.412;9.514;2023-01-16T16:23:26;19.80;56.50
12977;DHT22;6553;48.412;9.514;2023-01-16T16:26:18;19.70;56.40
12977;DHT22;6553;48.412;9.514;2023-01-16T16:28:45;19.70;56.40
12977;DHT22;6553;48.412;9.514;2023-01-16T16:31:13;19.70;56.40
12977;DHT22;6553;48.412;9.514;2023-01-16T16:33:40;19.70;56.40
12977;DHT22;6553;48.412;9.514;2023-01-16T16:36:14;19.70;56.50
12977;DHT22;6553;48.412;9.514;2023-01-16T16:38:48;19.80;56.50
12977;DHT22;6553;48.412;9.514;2023-01-16T16:45:02;19.80;56.50
12977;DHT22;6553;48.412;9.514;2023-01-16T16:47:40;19.70;56.50
12977;DHT22;6553;48.412;9.514;2023-01-16T16:50:30;19.70;56.50
12977;DHT22;6553;48.412;9.514;2023-01-16T16:53:11;19.70;56.50
12977;DHT22;6553;48.412;9.514;2023-01-16T16:55:40;19.70;56.40
12977;DHT22;6553;48.412;9.514;2023-01-16T16:58:15;19.70;56.50
12977;DHT22;6553;48.412;9.514;2023-01-16T17:00:47;19.70;56.40
12977;DHT22;6553;48.412;9.514;2023-01-16T17:03:18;19.70;56.40
12977;DHT22;6553;48.412;9.514;2023-01-16T17:05:47;19.70;56.40
12977;DHT22;6553;48.412;9.514;2023-01-16T17:08:23;19.80;56.50
12977;DHT22;6553;48.412;9.514;2023-01-16T17:10:53;19.70;56.40
12977;DHT22;6553;48.412;9.514;2023-01-16T17:13:21;19.70;56.40
12977;DHT22;6553;48.412;9.514;2023-01-16T17:15:54;19.70;56.40
12977;DHT22;6553;48.412;9.514;2023-01-16T17:18:25;19.80;56.50
12977;DHT22;6553;48.412;9.514;2023-01-16T17:20:52;19.70;56.40
12977;DHT22;6553;48.412;9.514;2023-01-16T17:23:20;19.70;56.40
12977;DHT22;6553;48.412;9.514;2023-01-16T17:25:46;19.80;56.50
12977;DHT22;6553;48.412;9.514;2023-01-16T17:28:12;19.80;56.50
12977;DHT22;6553;48.412;9.514;2023-01-16T17:30:39;19.80;56.80
12977;DHT22;6553;48.412;9.514;2023-01-16T17:33:13;19.70;56.80
12977;DHT22;6553;48.412;9.514;2023-01-16T17:35:43;19.70;56.90
12977;DHT22;6553;48.412;9.514;2023-01-16T17:38:19;19.70;57.00
12977;DHT22;6553;48.412;9.514;2023-01-16T17:40:45;19.70;57.10
12977;DHT22;6553;48.412;9.514;2023-01-16T17:43:16;19.70;57.20
12977;DHT22;6553;48.412;9.514;2023-01-16T17:46:06;19.70;57.30
12977;DHT22;6553;48.412;9.514;2023-01-16T17:48:34;19.70;57.40
12977;DHT22;6553;48.412;9.514;2023-01-16T17:51:00;19.70;57.60
12977;DHT22;6553;48.412;9.514;2023-01-16T17:53:28;19.70;57.70
12977;DHT22;6553;48.412;9.514;2023-01-16T17:55:57;19.70;57.80
12977;DHT22;6553;48.412;9.514;2023-01-16T18:01:32;19.70;58.00
12977;DHT22;6553;48.412;9.514;2023-01-16T18:03:59;19.70;58.00
12977;DHT22;6553;48.412;9.514;2023-01-16T18:06:34;19.70;58.10
12977;DHT22;6553;48.412;9.514;2023-01-16T18:09:01;19.80;58.10
12977;DHT22;6553;48.412;9.514;2023-01-16T18:11:31;19.70;58.20
12977;DHT22;6553;48.412;9.514;2023-01-16T18:14:17;19.70;58.20
12977;DHT22;6553;48.412;9.514;2023-01-16T18:17:02;19.80;58.40
12977;DHT22;6553;48.412;9.514;2023-01-16T18:19:53;19.70;58.50
12977;DHT22;6553;48.412;9.514;2023-01-16T18:22:27;19.80;58.50
12977;DHT22;6553;48.412;9.514;2023-01-16T18:24:56;19.70;58.50
12977;DHT22;6553;48.412;9.514;2023-01-16T18:27:23;19.70;58.50
12977;DHT22;6553;48.412;9.514;2023-01-16T18:29:49;19.70;58.60
12977;DHT22;6553;48.412;9.514;2023-01-16T18:32:16;19.70;58.60
12977;DHT22;6553;48.412;9.514;2023-01-16T18:35:03;19.80;58.70
12977;DHT22;6553;48.412;9.514;2023-01-16T18:37:47;19.80;58.80
12977;DHT22;6553;48.412;9.514;2023-01-16T18:40:31;19.80;58.90
12977;DHT22;6553;48.412;9.514;2023-01-16T18:43:26;19.80;58.90
12977;DHT22;6553;48.412;9.514;2023-01-16T18:46:15;19.80;58.90
12977;DHT22;6553;48.412;9.514;2023-01-16T18:49:00;19.70;58.90
12977;DHT22;6553;48.412;9.514;2023-01-16T18:51:45;19.70;59.00
12977;DHT22;6553;48.412;9.514;2023-01-16T18:54:32;19.70;59.00
12977;DHT22;6553;48.412;9.514;2023-01-16T18:57:17;19.70;59.20